Time;durP1;ratioP1;P1;durP2;ratioP2;P2;SDS_P1;SDS_P2;PMS_P1;PMS_P2;Temp;Humidity;BMP_temperature;BMP_pressure;BME280_temperature;BME280_humidity;BME280_pressure;Samples;Min_cycle;Max_cycle;Signal;HPM_P1;HPM_P2
2021/12/14 00:01:46;;;;;;;83.18;47.85;;;;;;;;;;5073107;28;20033;-62
2021/12/14 00:04:12;;;;;;;85.32;46.75;;;;;;;;;;5072970;28;20074;-62
2021/12/14 00:06:40;;;;;;;80.60;44.97;;;;;;;;;;5073010;28;20032;-62
2021/12/14 00:09:09;;;;;;;87.53;48.45;;;;;;;;;;5054886;28;20017;-62
2021/12/14 00:16:58;;;;;;;92.68;49.95;;;;;;;;;;5041219;28;20386;-62
2021/12/14 00:19:25;;;;;;;87.00;47.80;;;;;;;;;;5072759;28;20040;-62
2021/12/14 00:21:54;;;;;;;99.82;53.95;;;;;;;;;;5072906;28;20028;-62
2021/12/14 00:24:26;;;;;;;100.78;55.40;;;;;;;;;;5072813;28;20082;-62
2021/12/14 00:26:59;;;;;;;112.18;58.13;;;;;;;;;;5072819;28;20043;-62
2021/12/14 00:29:41;;;;;;;98.25;53.67;;;;;;;;;;5073092;28;20111;-62
2021/12/14 00:32:14;;;;;;;84.70;48.53;;;;;;;;;;5072789;28;20024;-62
2021/12/14 00:34:43;;;;;;;86.50;48.55;;;;;;;;;;5072770;28;20020;-62
2021/12/14 00:37:17;;;;;;;81.10;46.15;;;;;;;;;;5054684;28;20021;-62
2021/12/14 00:39:44;;;;;;;75.05;44.90;;;;;;;;;;5072649;28;20135;-62
2021/12/14 00:42:35;;;;;;;74.90;44.42;;;;;;;;;;5072668;28;20032;-62
2021/12/14 00:45:01;;;;;;;78.40;45.55;;;;;;;;;;5072736;28;20025;-62
2021/12/14 00:47:28;;;;;;;72.47;42.92;;;;;;;;;;5072344;28;20391;-62
2021/12/14 00:49:55;;;;;;;75.95;44.72;;;;;;;;;;5056149;28;20129;-62
2021/12/14 00:52:22;;;;;;;79.60;45.75;;;;;;;;;;5072254;28;20365;-62
2021/12/14 00:54:48;;;;;;;75.05;44.50;;;;;;;;;;5072588;28;20032;-62
2021/12/14 00:57:15;;;;;;;75.45;45.30;;;;;;;;;;5072520;28;20024;-62
2021/12/14 00:59:42;;;;;;;81.45;46.47;;;;;;;;;;5072420;28;20043;-62
2021/12/14 01:02:10;;;;;;;74.43;44.72;;;;;;;;;;5072256;28;20115;-62
2021/12/14 01:04:40;;;;;;;74.82;45.03;;;;;;;;;;5072406;28;20028;-62
2021/12/14 01:07:07;;;;;;;75.70;45.22;;;;;;;;;;5072697;28;20063;-62
2021/12/14 01:09:35;;;;;;;74.68;45.50;;;;;;;;;;5072143;28;20576;-62
2021/12/14 01:12:08;;;;;;;81.63;44.33;;;;;;;;;;5072358;28;20021;-62
2021/12/14 01:14:48;;;;;;;76.55;43.67;;;;;;;;;;5072485;28;20056;-62
2021/12/14 01:17:26;;;;;;;74.18;44.88;;;;;;;;;;5072423;28;20028;-62
2021/12/14 01:19:57;;;;;;;74.07;42.78;;;;;;;;;;5072167;28;20025;-62
2021/12/14 01:25:08;;;;;;;74.38;42.50;;;;;;;;;;5072321;28;20029;-62
2021/12/14 01:27:36;;;;;;;71.43;40.95;;;;;;;;;;5075882;28;20166;-61
2021/12/14 01:30:12;;;;;;;70.65;42.05;;;;;;;;;;5074413;28;20024;-62
2021/12/14 01:32:41;;;;;;;68.72;41.40;;;;;;;;;;5075789;28;20412;-61
2021/12/14 01:35:12;;;;;;;70.15;41.65;;;;;;;;;;5075687;28;20028;-62
2021/12/14 01:37:44;;;;;;;73.43;42.58;;;;;;;;;;5075770;28;20031;-62
2021/12/14 01:40:19;;;;;;;74.53;42.22;;;;;;;;;;5075566;28;20036;-62
2021/12/14 01:42:46;;;;;;;73.38;43.55;;;;;;;;;;5075595;28;20024;-62
2021/12/14 01:45:20;;;;;;;73.82;42.55;;;;;;;;;;5075483;28;20093;-62
2021/12/14 01:47:55;;;;;;;68.03;42.67;;;;;;;;;;5075476;28;20461;-62
2021/12/14 01:50:25;;;;;;;81.63;45.45;;;;;;;;;;5075311;28;20127;-62
2021/12/14 01:52:51;;;;;;;77.88;45.13;;;;;;;;;;5057344;28;20037;-62
2021/12/14 01:55:21;;;;;;;83.95;47.83;;;;;;;;;;5075555;28;20120;-62
2021/12/14 01:57:48;;;;;;;101.82;53.33;;;;;;;;;;5075204;28;20085;-62
2021/12/14 02:00:33;;;;;;;100.85;54.53;;;;;;;;;;5057086;28;20584;-62
2021/12/14 02:03:00;;;;;;;90.28;51.47;;;;;;;;;;5057167;28;20028;-62
2021/12/14 02:05:34;;;;;;;84.32;46.25;;;;;;;;;;5075095;28;20107;-62
2021/12/14 02:08:01;;;;;;;80.43;44.60;;;;;;;;;;5075066;28;20075;-62
2021/12/14 02:10:33;;;;;;;81.95;46.67;;;;;;;;;;5057028;28;20043;-62
2021/12/14 02:13:00;;;;;;;84.60;45.90;;;;;;;;;;5056813;28;20116;-62
2021/12/14 02:15:27;;;;;;;81.20;46.88;;;;;;;;;;5074868;28;20111;-62
2021/12/14 02:17:55;;;;;;;83.30;46.92;;;;;;;;;;5074733;28;20484;-62
2021/12/14 02:20:26;;;;;;;82.82;48.20;;;;;;;;;;5074713;28;20194;-62
2021/12/14 02:22:53;;;;;;;86.97;46.72;;;;;;;;;;5074527;28;20422;-62
2021/12/14 02:25:19;;;;;;;87.22;49.22;;;;;;;;;;5074712;28;20113;-62
2021/12/14 02:27:47;;;;;;;80.50;46.28;;;;;;;;;;5074644;28;20104;-62
2021/12/14 02:30:15;;;;;;;90.10;49.88;;;;;;;;;;5074277;28;20063;-62
2021/12/14 02:32:42;;;;;;;86.45;50.30;;;;;;;;;;5074537;28;20025;-62
2021/12/14 02:35:10;;;;;;;89.68;49.10;;;;;;;;;;5074480;28;20016;-62
2021/12/14 02:37:48;;;;;;;82.00;47.10;;;;;;;;;;5074001;28;20095;-62
2021/12/14 02:40:31;;;;;;;88.15;49.80;;;;;;;;;;5074396;28;20024;-62
2021/12/14 02:42:57;;;;;;;84.80;48.55;;;;;;;;;;5074436;28;20032;-62
2021/12/14 02:45:24;;;;;;;80.45;47.08;;;;;;;;;;5074014;28;20432;-61
2021/12/14 02:47:51;;;;;;;77.43;43.80;;;;;;;;;;5074565;28;20479;-61
2021/12/14 02:50:17;;;;;;;81.78;47.85;;;;;;;;;;5073890;28;20381;-62
2021/12/14 02:52:44;;;;;;;78.38;44.33;;;;;;;;;;5056184;28;20032;-62
2021/12/14 02:55:18;;;;;;;78.95;44.70;;;;;;;;;;5074183;28;20416;-62
2021/12/14 02:57:46;;;;;;;78.97;45.50;;;;;;;;;;5074058;28;20025;-61
2021/12/14 03:00:24;;;;;;;86.80;45.95;;;;;;;;;;5073937;28;20033;-61
2021/12/14 03:02:51;;;;;;;81.53;43.67;;;;;;;;;;5056052;28;20075;-61
2021/12/14 03:05:20;;;;;;;83.00;43.28;;;;;;;;;;5056032;28;20031;-61
2021/12/14 03:07:48;;;;;;;72.47;41.78;;;;;;;;;;5073869;28;20032;-62
2021/12/14 03:10:32;;;;;;;74.25;41.83;;;;;;;;;;5073805;28;20028;-62
2021/12/14 03:12:59;;;;;;;69.55;39.53;;;;;;;;;;5073832;28;20067;-62
2021/12/14 03:15:34;;;;;;;70.78;41.40;;;;;;;;;;5073771;28;20036;-61
2021/12/14 03:18:03;;;;;;;70.05;39.03;;;;;;;;;;5073675;28;20029;-61
2021/12/14 03:20:34;;;;;;;69.80;39.38;;;;;;;;;;5073651;28;20033;-61
2021/12/14 03:23:27;;;;;;;67.10;38.77;;;;;;;;;;5073590;28;20078;-61
2021/12/14 03:25:55;;;;;;;65.78;37.08;;;;;;;;;;5052028;28;20261;-61
2021/12/14 03:28:22;;;;;;;68.95;38.22;;;;;;;;;;5073476;28;20064;-61
2021/12/14 03:30:48;;;;;;;71.60;39.50;;;;;;;;;;5073465;28;20024;-61
2021/12/14 03:33:18;;;;;;;66.82;38.03;;;;;;;;;;5073395;28;20111;-61
2021/12/14 03:35:46;;;;;;;71.85;39.60;;;;;;;;;;5073398;28;20034;-61
2021/12/14 03:38:18;;;;;;;68.97;39.60;;;;;;;;;;5073299;28;20521;-61
2021/12/14 03:40:44;;;;;;;73.40;39.30;;;;;;;;;;5055006;28;20029;-61
2021/12/14 03:43:15;;;;;;;71.22;40.25;;;;;;;;;;5073260;28;20047;-62
2021/12/14 03:45:42;;;;;;;74.20;40.05;;;;;;;;;;5072961;28;20059;-61
2021/12/14 03:48:08;;;;;;;70.13;39.28;;;;;;;;;;5072207;28;20380;-61
2021/12/14 03:50:40;;;;;;;71.18;39.47;;;;;;;;;;5073114;28;20047;-61
2021/12/14 03:53:06;;;;;;;;;;;;;;;;;;5073640;28;20085;-61
2021/12/14 03:55:34;;;;;;;74.78;41.08;;;;;;;;;;5055177;28;19912;-61
2021/12/14 03:58:01;;;;;;;77.22;42.05;;;;;;;;;;5073120;28;20077;-61
2021/12/14 04:00:30;;;;;;;75.50;41.40;;;;;;;;;;5073107;28;20041;-61
2021/12/14 04:02:57;;;;;;;80.53;43.70;;;;;;;;;;5072725;28;20380;-61
2021/12/14 04:05:23;;;;;;;84.25;45.20;;;;;;;;;;5073077;28;20070;-61
2021/12/14 04:07:50;;;;;;;80.97;44.15;;;;;;;;;;5072992;28;20054;-62
2021/12/14 04:10:20;;;;;;;82.28;44.40;;;;;;;;;;5054964;28;20108;-62
2021/12/14 04:12:46;;;;;;;91.88;45.15;;;;;;;;;;5072703;28;20024;-62
2021/12/14 04:15:13;;;;;;;90.28;46.55;;;;;;;;;;5054993;28;20024;-62
2021/12/14 04:17:40;;;;;;;99.28;50.67;;;;;;;;;;5073229;28;20027;-61
2021/12/14 04:20:17;;;;;;;102.65;49.35;;;;;;;;;;5054822;28;20028;-61
2021/12/14 04:22:48;;;;;;;107.55;49.78;;;;;;;;;;5072908;28;20033;-61
2021/12/14 04:25:15;;;;;;;108.15;51.42;;;;;;;;;;5072906;28;20063;-62
2021/12/14 04:27:43;;;;;;;106.57;51.25;;;;;;;;;;5072819;28;20019;-61
2021/12/14 04:30:11;;;;;;;126.22;54.13;;;;;;;;;;5072824;28;20028;-62
2021/12/14 04:32:38;;;;;;;116.07;53.70;;;;;;;;;;5072768;28;20113;-62
2021/12/14 04:35:06;;;;;;;124.10;51.65;;;;;;;;;;5072822;28;20104;-62
2021/12/14 04:37:38;;;;;;;133.30;56.35;;;;;;;;;;5072762;28;20020;-62
2021/12/14 04:40:21;;;;;;;144.85;55.70;;;;;;;;;;5072666;28;20032;-62
2021/12/14 04:53:54;;;;;;;226.43;61.17;;;;;;;;;;5072604;28;20081;-62
2021/12/14 04:56:20;;;;;;;;;;;;;;;;;;5073125;28;20052;-62
2021/12/14 04:58:49;;;;;;;245.63;61.10;;;;;;;;;;5072827;28;20297;-62
2021/12/14 05:01:16;;;;;;;367.38;68.65;;;;;;;;;;5076063;28;20029;-62
2021/12/14 05:03:45;;;;;;;424.10;70.07;;;;;;;;;;5076510;28;20109;-62
2021/12/14 05:06:17;;;;;;;319.63;58.33;;;;;;;;;;5076257;28;20114;-62
2021/12/14 05:11:17;;;;;;;344.25;60.10;;;;;;;;;;5076126;28;20537;-62
2021/12/14 05:13:49;;;;;;;298.08;54.53;;;;;;;;;;5076055;28;20032;-62
2021/12/14 05:16:19;;;;;;;203.77;50.88;;;;;;;;;;5076029;28;20047;-62
2021/12/14 05:18:49;;;;;;;316.35;54.95;;;;;;;;;;5075661;28;20459;-62
2021/12/14 05:21:26;;;;;;;320.55;58.38;;;;;;;;;;5075867;28;20381;-62
2021/12/14 05:23:53;;;;;;;293.33;58.45;;;;;;;;;;5057972;28;20081;-62
2021/12/14 05:26:20;;;;;;;232.00;59.03;;;;;;;;;;5075807;28;20082;-61
2021/12/14 05:28:46;;;;;;;176.77;56.55;;;;;;;;;;5075768;28;20027;-62
2021/12/14 05:31:12;;;;;;;223.15;62.88;;;;;;;;;;5057744;28;20063;-62
2021/12/14 05:33:40;;;;;;;197.60;55.55;;;;;;;;;;5057722;28;20112;-62
2021/12/14 05:36:08;;;;;;;267.98;58.42;;;;;;;;;;5057715;28;20059;-62
2021/12/14 05:44:05;;;;;;;373.40;61.22;;;;;;;;;;5075250;28;20042;-62
2021/12/14 05:46:33;;;;;;;300.92;60.63;;;;;;;;;;5057503;28;20123;-62
2021/12/14 05:49:01;;;;;;;233.85;58.50;;;;;;;;;;5075527;28;20035;-62
2021/12/14 05:51:28;;;;;;;306.60;69.15;;;;;;;;;;5071438;28;20556;-62
2021/12/14 05:53:55;;;;;;;278.05;64.90;;;;;;;;;;5075294;28;20499;-62
2021/12/14 05:56:23;;;;;;;330.40;73.47;;;;;;;;;;5073950;28;20441;-62
2021/12/14 05:58:50;;;;;;;260.27;61.67;;;;;;;;;;5075209;28;20103;-62
2021/12/14 06:01:18;;;;;;;209.65;53.63;;;;;;;;;;5075130;28;20476;-62
2021/12/14 06:03:49;;;;;;;199.50;51.17;;;;;;;;;;5075390;28;20033;-62
2021/12/14 06:06:27;;;;;;;169.63;49.70;;;;;;;;;;5075191;28;20021;-62
2021/12/14 06:09:02;;;;;;;207.52;53.22;;;;;;;;;;5075169;28;20025;-62
2021/12/14 06:11:29;;;;;;;171.13;49.63;;;;;;;;;;5072688;28;20469;-62
2021/12/14 06:13:56;;;;;;;163.63;48.72;;;;;;;;;;5074771;28;20032;-62
2021/12/14 06:16:33;;;;;;;157.75;46.55;;;;;;;;;;5074880;28;20024;-62
2021/12/14 06:19:17;;;;;;;188.43;50.40;;;;;;;;;;5073564;28;20107;-62
2021/12/14 06:21:44;;;;;;;166.88;44.22;;;;;;;;;;5073550;28;20045;-62
2021/12/14 06:24:11;;;;;;;240.95;62.90;;;;;;;;;;5074746;28;20031;-62
2021/12/14 06:26:38;;;;;;;207.48;45.92;;;;;;;;;;5074657;28;20374;-62
2021/12/14 06:29:06;;;;;;;146.23;39.53;;;;;;;;;;5074730;28;20024;-62
2021/12/14 06:31:32;;;;;;;293.55;45.42;;;;;;;;;;5074528;28;20024;-62
2021/12/14 06:34:10;;;;;;;257.33;47.42;;;;;;;;;;5074429;28;20054;-62
2021/12/14 06:36:51;;;;;;;281.33;56.83;;;;;;;;;;5067525;28;20457;-62
2021/12/14 06:39:17;;;;;;;190.65;53.67;;;;;;;;;;5071343;28;20047;-62
2021/12/14 06:41:43;;;;;;;244.73;54.70;;;;;;;;;;5074310;28;20055;-62
2021/12/14 06:44:10;;;;;;;200.57;52.25;;;;;;;;;;5074259;28;20035;-62
2021/12/14 06:46:40;;;;;;;180.80;50.35;;;;;;;;;;5074500;28;20116;-61
2021/12/14 06:49:08;;;;;;;218.35;51.75;;;;;;;;;;5072857;28;20032;-60
2021/12/14 06:51:39;;;;;;;172.45;57.20;;;;;;;;;;5072615;28;20146;-60
2021/12/14 06:54:08;;;;;;;158.60;52.63;;;;;;;;;;5074134;28;20020;-60
2021/12/14 06:56:35;;;;;;;162.73;53.47;;;;;;;;;;5071115;28;20103;-62
2021/12/14 06:59:04;;;;;;;206.30;61.05;;;;;;;;;;5071844;28;20428;-60
2021/12/14 07:01:33;;;;;;;235.30;62.03;;;;;;;;;;5073641;28;20112;-62
2021/12/14 07:04:07;;;;;;;182.63;53.72;;;;;;;;;;5072040;28;20603;-62
2021/12/14 07:06:38;;;;;;;216.38;54.35;;;;;;;;;;5073317;28;20451;-62
2021/12/14 07:09:07;;;;;;;228.50;54.45;;;;;;;;;;5072484;28;20070;-62
2021/12/14 07:11:34;;;;;;;208.65;51.25;;;;;;;;;;5073617;28;20017;-62
2021/12/14 07:14:02;;;;;;;187.35;47.17;;;;;;;;;;5073522;28;20056;-62
2021/12/14 07:16:38;;;;;;;213.05;52.00;;;;;;;;;;5073700;28;20599;-62
2021/12/14 07:19:05;;;;;;;218.80;53.47;;;;;;;;;;5072336;28;20377;-61
2021/12/14 07:21:36;;;;;;;190.63;53.85;;;;;;;;;;5073386;28;20044;-62
2021/12/14 07:24:29;;;;;;;232.20;60.83;;;;;;;;;;5073407;28;20056;-62
2021/12/14 07:27:13;;;;;;;180.35;47.95;;;;;;;;;;5069578;28;20041;-61
2021/12/14 07:29:40;;;;;;;156.98;46.53;;;;;;;;;;5073187;28;20111;-61
2021/12/14 07:32:06;;;;;;;170.32;47.25;;;;;;;;;;5073008;28;20048;-61
2021/12/14 07:34:33;;;;;;;178.88;46.92;;;;;;;;;;5072790;28;20067;-61
2021/12/14 07:36:59;;;;;;;163.20;46.35;;;;;;;;;;5073512;28;20025;-61
2021/12/14 07:39:25;;;;;;;143.57;42.50;;;;;;;;;;5073096;28;20074;-61
2021/12/14 07:41:55;;;;;;;152.05;44.42;;;;;;;;;;5073006;28;20032;-62
2021/12/14 07:44:23;;;;;;;149.25;42.97;;;;;;;;;;5073131;28;20028;-61
2021/12/14 07:46:54;;;;;;;183.15;50.40;;;;;;;;;;5073122;28;20049;-61
2021/12/14 07:49:35;;;;;;;153.80;45.53;;;;;;;;;;5073698;28;20050;-62
2021/12/14 07:52:04;;;;;;;144.13;42.92;;;;;;;;;;5093319;28;20039;-62
2021/12/14 07:54:32;;;;;;;151.65;43.55;;;;;;;;;;5093486;28;20020;-62
2021/12/14 07:57:00;;;;;;;127.75;39.75;;;;;;;;;;5093306;28;20081;-62
2021/12/14 07:59:28;;;;;;;131.23;39.50;;;;;;;;;;5093102;28;20028;-61
2021/12/14 08:02:09;;;;;;;152.85;46.40;;;;;;;;;;5091725;28;20061;-62
2021/12/14 08:04:37;;;;;;;151.82;44.65;;;;;;;;;;5091819;28;20481;-62
2021/12/14 08:07:04;;;;;;;168.45;44.88;;;;;;;;;;5093061;28;20035;-62
2021/12/14 08:09:51;;;;;;;205.85;51.75;;;;;;;;;;5091737;28;20508;-62
2021/12/14 08:12:36;;;;;;;166.85;49.28;;;;;;;;;;5093127;28;20341;-63
2021/12/14 08:15:21;;;;;;;135.85;41.75;;;;;;;;;;5091670;28;20090;-63
2021/12/14 08:17:58;;;;;;;128.02;41.63;;;;;;;;;;5092949;28;20024;-63
2021/12/14 08:20:26;;;;;;;144.68;45.92;;;;;;;;;;5091641;28;20050;-63
2021/12/14 08:22:53;;;;;;;151.05;47.72;;;;;;;;;;5092894;28;20031;-63
2021/12/14 08:25:23;;;;;;;135.70;42.95;;;;;;;;;;5092904;28;20038;-63
2021/12/14 08:28:00;;;;;;;138.73;43.20;;;;;;;;;;5092838;28;20024;-63
2021/12/14 08:30:26;;;;;;;156.85;49.03;;;;;;;;;;5091154;28;20036;-63
2021/12/14 08:32:52;;;;;;;145.10;47.17;;;;;;;;;;5091342;28;20051;-63
2021/12/14 08:35:19;;;;;;;143.95;45.22;;;;;;;;;;5095032;28;20028;-63
2021/12/14 08:37:52;;;;;;;167.50;51.08;;;;;;;;;;5095441;28;20114;-63
2021/12/14 08:40:24;;;;;;;152.15;51.13;;;;;;;;;;5095391;28;20529;-63
2021/12/14 08:43:10;;;;;;;146.23;48.80;;;;;;;;;;5096813;28;20097;-63
2021/12/14 08:45:39;;;;;;;155.10;50.97;;;;;;;;;;5096312;28;20520;-63
2021/12/14 08:48:08;;;;;;;144.18;48.28;;;;;;;;;;5096610;28;20020;-63
2021/12/14 08:50:40;;;;;;;142.20;46.00;;;;;;;;;;5094998;28;20082;-63
2021/12/14 08:53:08;;;;;;;135.13;46.40;;;;;;;;;;5096506;28;20016;-63
2021/12/14 08:55:36;;;;;;;142.27;48.88;;;;;;;;;;5096167;28;20016;-63
2021/12/14 08:58:04;;;;;;;148.68;49.95;;;;;;;;;;5096528;28;20028;-63
2021/12/14 09:00:36;;;;;;;168.18;50.83;;;;;;;;;;5096019;28;20063;-63
2021/12/14 09:03:03;;;;;;;136.07;47.10;;;;;;;;;;5096459;28;20032;-63
2021/12/14 09:05:33;;;;;;;132.88;49.67;;;;;;;;;;5092539;28;20443;-63
2021/12/14 09:08:00;;;;;;;134.75;52.33;;;;;;;;;;5096501;28;20031;-63
2021/12/14 09:10:28;;;;;;;151.60;52.30;;;;;;;;;;5096664;28;20044;-63
2021/12/14 09:12:55;;;;;;;163.45;48.90;;;;;;;;;;5095896;28;20184;-63
2021/12/14 09:15:24;;;;;;;154.82;49.47;;;;;;;;;;5096156;28;20027;-63
2021/12/14 09:17:52;;;;;;;154.20;53.25;;;;;;;;;;5096082;28;20024;-63
2021/12/14 09:20:23;;;;;;;150.55;50.63;;;;;;;;;;5094203;28;20106;-63
2021/12/14 09:22:51;;;;;;;121.97;44.83;;;;;;;;;;5095611;28;20046;-63
2021/12/14 09:25:19;;;;;;;125.63;48.67;;;;;;;;;;5095585;28;20048;-63
2021/12/14 09:27:52;;;;;;;137.27;50.75;;;;;;;;;;5095596;28;20048;-63
2021/12/14 09:30:20;;;;;;;133.85;50.17;;;;;;;;;;5094749;28;20024;-63
2021/12/14 09:32:47;;;;;;;138.00;48.78;;;;;;;;;;5095964;28;20024;-63
2021/12/14 09:35:19;;;;;;;131.93;45.65;;;;;;;;;;5094568;28;20369;-62
2021/12/14 09:37:47;;;;;;;121.97;46.80;;;;;;;;;;5094821;28;20358;-62
2021/12/14 09:40:16;;;;;;;122.90;49.53;;;;;;;;;;5095657;28;20024;-63
2021/12/14 09:42:42;;;;;;;126.93;51.25;;;;;;;;;;5095768;28;20077;-63
2021/12/14 09:45:11;;;;;;;110.25;44.65;;;;;;;;;;5095646;28;20099;-62
2021/12/14 09:47:37;;;;;;;113.55;45.45;;;;;;;;;;5093361;28;20384;-63
2021/12/14 09:50:06;;;;;;;109.50;47.33;;;;;;;;;;5095305;28;20429;-62
2021/12/14 09:52:35;;;;;;;99.15;43.85;;;;;;;;;;5095572;28;20504;-63
2021/12/14 09:55:02;;;;;;;98.75;44.55;;;;;;;;;;5095800;28;20031;-62
2021/12/14 09:57:33;;;;;;;94.38;44.58;;;;;;;;;;5094267;28;20119;-62
2021/12/14 10:00:00;;;;;;;85.15;40.70;;;;;;;;;;5094012;28;20455;-62
2021/12/14 10:02:34;;;;;;;86.85;43.53;;;;;;;;;;5095576;28;20059;-65
2021/12/14 10:05:21;;;;;;;78.32;41.38;;;;;;;;;;5095350;28;20460;-62
2021/12/14 10:07:48;;;;;;;87.10;44.78;;;;;;;;;;5095245;28;20024;-62
2021/12/14 10:10:17;;;;;;;76.60;38.10;;;;;;;;;;5094997;28;20418;-62
2021/12/14 10:12:51;;;;;;;75.30;39.13;;;;;;;;;;5095273;28;20032;-62
2021/12/14 10:15:21;;;;;;;73.13;39.10;;;;;;;;;;5093884;28;20050;-62
2021/12/14 10:17:47;;;;;;;76.80;39.60;;;;;;;;;;5093945;28;20028;-62
2021/12/14 10:20:18;;;;;;;77.22;41.67;;;;;;;;;;5094966;28;20032;-62
2021/12/14 10:22:46;;;;;;;83.45;44.08;;;;;;;;;;5093481;28;20046;-62
2021/12/14 10:25:14;;;;;;;78.35;42.38;;;;;;;;;;5094628;28;20032;-62
2021/12/14 10:27:40;;;;;;;90.43;45.03;;;;;;;;;;5093648;28;20024;-62
2021/12/14 10:30:11;;;;;;;85.40;44.30;;;;;;;;;;5094822;28;20032;-63
2021/12/14 10:32:38;;;;;;;91.97;46.20;;;;;;;;;;5095133;28;20107;-62
2021/12/14 10:35:12;;;;;;;96.57;48.67;;;;;;;;;;5094794;28;20024;-62
2021/12/14 10:37:54;;;;;;;102.50;48.53;;;;;;;;;;5094819;28;20024;-62
2021/12/14 10:43:15;;;;;;;91.97;45.97;;;;;;;;;;5091999;28;20058;-62
2021/12/14 10:45:43;;;;;;;108.55;57.08;;;;;;;;;;5093938;28;20024;-62
2021/12/14 10:48:11;;;;;;;91.13;46.78;;;;;;;;;;5094427;28;20098;-62
2021/12/14 10:50:38;;;;;;;75.45;43.13;;;;;;;;;;5093975;28;20054;-62
2021/12/14 10:53:07;;;;;;;81.03;44.13;;;;;;;;;;5092968;28;20384;-62
2021/12/14 10:55:54;;;;;;;61.90;34.38;;;;;;;;;;5094208;28;20024;-63
2021/12/14 10:58:21;;;;;;;69.95;38.30;;;;;;;;;;5093515;28;20369;-62
2021/12/14 11:00:50;;;;;;;76.22;39.55;;;;;;;;;;5092764;28;20032;-63
2021/12/14 11:03:19;;;;;;;67.70;38.17;;;;;;;;;;5094115;28;20028;-62
2021/12/14 11:05:52;;;;;;;65.13;37.40;;;;;;;;;;5093909;28;20020;-62
2021/12/14 11:08:37;;;;;;;60.72;37.22;;;;;;;;;;5093898;28;20031;-63
2021/12/14 11:11:06;;;;;;;65.57;36.08;;;;;;;;;;5092784;28;20388;-62
2021/12/14 11:13:41;;;;;;;66.40;38.05;;;;;;;;;;5093858;28;20032;-62
2021/12/14 11:16:14;;;;;;;60.25;35.30;;;;;;;;;;5093873;28;20024;-62
2021/12/14 11:18:43;;;;;;;64.13;37.80;;;;;;;;;;5093898;28;20024;-62
2021/12/14 11:21:12;;;;;;;78.70;43.25;;;;;;;;;;5093724;28;20032;-62
2021/12/14 11:23:47;;;;;;;60.47;38.20;;;;;;;;;;5092351;28;20043;-62
2021/12/14 11:26:18;;;;;;;74.20;43.05;;;;;;;;;;5093624;28;20031;-62
2021/12/14 11:28:47;;;;;;;64.70;36.85;;;;;;;;;;5093311;28;20419;-62
2021/12/14 11:31:17;;;;;;;67.32;39.35;;;;;;;;;;5093468;28;20016;-62
2021/12/14 11:33:49;;;;;;;63.17;37.92;;;;;;;;;;5093426;28;20020;-64
2021/12/14 11:36:24;;;;;;;58.85;35.63;;;;;;;;;;5093617;28;20376;-63
2021/12/14 11:38:59;;;;;;;73.72;42.25;;;;;;;;;;5091862;28;20039;-64
2021/12/14 11:41:34;;;;;;;80.55;44.17;;;;;;;;;;5093200;28;20022;-63
2021/12/14 11:44:00;;;;;;;74.20;43.35;;;;;;;;;;5093144;28;20031;-63
2021/12/14 11:46:29;;;;;;;71.25;39.90;;;;;;;;;;5093425;28;20107;-63
2021/12/14 11:48:58;;;;;;;67.85;38.97;;;;;;;;;;5091874;28;20084;-63
2021/12/14 11:51:25;;;;;;;79.18;42.08;;;;;;;;;;5093325;28;20414;-63
2021/12/14 11:53:53;;;;;;;88.53;45.00;;;;;;;;;;5093134;28;20039;-63
2021/12/14 11:56:21;;;;;;;96.55;48.80;;;;;;;;;;5092024;28;20085;-63
2021/12/14 11:58:50;;;;;;;68.88;40.03;;;;;;;;;;5093469;28;20394;-63
2021/12/14 12:01:27;;;;;;;71.70;41.22;;;;;;;;;;5089540;28;20468;-63
2021/12/14 12:03:58;;;;;;;80.22;46.03;;;;;;;;;;5092527;28;20070;-63
2021/12/14 12:11:47;;;;;;;74.80;44.20;;;;;;;;;;5092908;28;20043;-63
2021/12/14 12:14:19;;;;;;;63.90;38.08;;;;;;;;;;5092822;28;20020;-63
2021/12/14 12:16:46;;;;;;;77.88;46.47;;;;;;;;;;5092465;28;20023;-63
2021/12/14 12:19:14;;;;;;;98.35;49.33;;;;;;;;;;5092871;28;20073;-62
2021/12/14 12:21:42;;;;;;;105.45;53.90;;;;;;;;;;5092687;28;20076;-62
2021/12/14 12:24:28;;;;;;;88.97;49.20;;;;;;;;;;5092790;28;20020;-61
2021/12/14 12:27:14;;;;;;;100.03;52.97;;;;;;;;;;5091298;28;20052;-61
2021/12/14 12:29:40;;;;;;;90.35;50.03;;;;;;;;;;5091465;28;20055;-62
2021/12/14 12:32:17;;;;;;;94.78;52.40;;;;;;;;;;5092449;28;20473;-61
2021/12/14 12:34:44;;;;;;;110.60;59.58;;;;;;;;;;5092599;28;20027;-61
2021/12/14 12:37:14;;;;;;;99.05;54.33;;;;;;;;;;5089992;28;20020;-62
2021/12/14 12:39:47;;;;;;;76.22;46.03;;;;;;;;;;5090719;28;20027;-61
2021/12/14 12:45:27;;;;;;;88.18;49.58;;;;;;;;;;5092515;28;20445;-62
2021/12/14 12:47:55;;;;;;;71.28;41.05;;;;;;;;;;5091179;28;20055;-61
2021/12/14 12:50:24;;;;;;;97.45;54.72;;;;;;;;;;5091586;28;20448;-62
2021/12/14 12:52:50;;;;;;;106.18;56.22;;;;;;;;;;5092137;28;20059;-62
2021/12/14 12:55:18;;;;;;;97.93;52.08;;;;;;;;;;5092314;28;20028;-62
2021/12/14 12:57:54;;;;;;;108.90;60.20;;;;;;;;;;5092049;28;20123;-62
2021/12/14 13:00:37;;;;;;;96.05;54.22;;;;;;;;;;5092185;28;20046;-61
2021/12/14 13:03:03;;;;;;;85.75;49.42;;;;;;;;;;5092182;28;20354;-61
2021/12/14 13:05:33;;;;;;;86.63;51.08;;;;;;;;;;5090865;28;20021;-61
2021/12/14 13:08:01;;;;;;;90.05;51.95;;;;;;;;;;5092286;28;20081;-61
2021/12/14 13:10:35;;;;;;;101.65;54.78;;;;;;;;;;5091092;28;20075;-61
2021/12/14 13:13:10;;;;;;;98.80;54.75;;;;;;;;;;5091840;28;20020;-61
2021/12/14 13:16:09;;;;;;;98.25;53.85;;;;;;;;;;5092058;28;20602;-61
2021/12/14 13:18:56;;;;;;;80.65;47.72;;;;;;;;;;5058040;28;20036;-61
2021/12/14 13:21:22;;;;;;;87.20;52.30;;;;;;;;;;5094320;28;20028;-61
2021/12/14 13:23:49;;;;;;;96.75;57.58;;;;;;;;;;5096080;28;20024;-61
2021/12/14 13:29:12;;;;;;;88.18;50.03;;;;;;;;;;5090647;28;20101;-62
2021/12/14 13:31:42;;;;;;;86.63;50.90;;;;;;;;;;5094518;28;20060;-62
2021/12/14 13:34:10;;;;;;;80.90;46.25;;;;;;;;;;5093894;28;20039;-62
2021/12/14 13:36:37;;;;;;;77.20;44.78;;;;;;;;;;5094335;28;20462;-62
2021/12/14 13:39:05;;;;;;;73.63;42.85;;;;;;;;;;5090109;28;20426;-62
2021/12/14 13:41:35;;;;;;;71.40;40.53;;;;;;;;;;5092571;28;20127;-61
2021/12/14 13:44:05;;;;;;;60.85;39.40;;;;;;;;;;5094814;28;20036;-62
2021/12/14 13:46:31;;;;;;;67.68;40.70;;;;;;;;;;5094902;28;20031;-62
2021/12/14 13:49:00;;;;;;;60.67;37.88;;;;;;;;;;5095314;28;20097;-62
2021/12/14 13:51:29;;;;;;;67.45;38.92;;;;;;;;;;5095526;28;20043;-62
2021/12/14 13:53:56;;;;;;;56.47;35.15;;;;;;;;;;5095423;28;20020;-62
2021/12/14 13:56:25;;;;;;;57.80;35.42;;;;;;;;;;5093806;28;20102;-62
2021/12/14 13:58:51;;;;;;;58.30;35.92;;;;;;;;;;5095402;28;20013;-62
2021/12/14 14:01:17;;;;;;;68.80;39.92;;;;;;;;;;5093972;28;20495;-62
2021/12/14 14:03:47;;;;;;;70.90;41.60;;;;;;;;;;5095353;28;20035;-61
2021/12/14 14:06:15;;;;;;;81.15;44.92;;;;;;;;;;5095193;28;20034;-62
2021/12/14 14:08:44;;;;;;;74.25;43.47;;;;;;;;;;5095233;28;20032;-61
2021/12/14 14:11:22;;;;;;;71.47;42.80;;;;;;;;;;5095091;28;20031;-62
2021/12/14 14:13:49;;;;;;;71.13;41.28;;;;;;;;;;5094871;28;20102;-62
2021/12/14 14:16:16;;;;;;;65.63;37.50;;;;;;;;;;5093474;28;20023;-61
2021/12/14 14:18:46;;;;;;;63.55;37.45;;;;;;;;;;5095057;28;20036;-61
2021/12/14 14:21:14;;;;;;;76.03;42.10;;;;;;;;;;5094933;28;20388;-62
2021/12/14 14:23:44;;;;;;;74.75;42.85;;;;;;;;;;5094887;28;20021;-62
2021/12/14 14:26:11;;;;;;;74.20;43.85;;;;;;;;;;5094386;28;20028;-62
2021/12/14 14:28:37;;;;;;;75.88;42.45;;;;;;;;;;5094863;28;20069;-62
2021/12/14 14:31:05;;;;;;;76.97;42.28;;;;;;;;;;5094446;28;20419;-62
2021/12/14 14:33:43;;;;;;;69.85;40.40;;;;;;;;;;5094005;28;20105;-61
2021/12/14 14:36:09;;;;;;;61.30;36.72;;;;;;;;;;5094623;28;20368;-62
2021/12/14 14:38:41;;;;;;;72.25;41.72;;;;;;;;;;5094647;28;20031;-62
2021/12/14 14:41:19;;;;;;;140.98;70.68;;;;;;;;;;5094555;28;20063;-62
2021/12/14 14:43:54;;;;;;;142.40;72.55;;;;;;;;;;5094209;28;20044;-62
2021/12/14 14:46:41;;;;;;;143.27;73.95;;;;;;;;;;5094310;28;20028;-62
2021/12/14 14:49:16;;;;;;;154.02;76.00;;;;;;;;;;5092786;28;20399;-62
2021/12/14 14:51:57;;;;;;;148.50;78.85;;;;;;;;;;5094555;28;20106;-62
2021/12/14 14:54:34;;;;;;;159.25;81.15;;;;;;;;;;5094487;28;20131;-62
2021/12/14 14:57:09;;;;;;;176.73;92.18;;;;;;;;;;5094355;28;20377;-62
2021/12/14 14:59:36;;;;;;;179.93;94.28;;;;;;;;;;5094361;28;20051;-63
2021/12/14 15:02:03;;;;;;;178.13;95.75;;;;;;;;;;5094502;28;20463;-63
2021/12/14 15:04:29;;;;;;;188.32;107.20;;;;;;;;;;5092634;28;20366;-62
2021/12/14 15:06:56;;;;;;;164.80;93.60;;;;;;;;;;5093197;28;20103;-62
2021/12/14 15:09:32;;;;;;;179.02;96.28;;;;;;;;;;5094129;28;20045;-62
2021/12/14 15:12:00;;;;;;;178.23;98.32;;;;;;;;;;5092686;28;20115;-62